Time;durP1;ratioP1;P1;durP2;ratioP2;P2;SDS_P1;SDS_P2;PMS_P1;PMS_P2;Temp;Humidity;BMP_temperature;BMP_pressure;BME280_temperature;BME280_humidity;BME280_pressure;Samples;Min_cycle;Max_cycle;Signal;HPM_P1;HPM_P2
2021/12/18 00:02:09;;;;;;;4.72;2.15;;;6.10;99.90;;;;;;4993923;28;20045;-49
2021/12/18 00:04:35;;;;;;;3.22;2.05;;;6.10;99.90;;;;;;5011472;28;20033;-51
2021/12/18 00:07:01;;;;;;;3.42;1.67;;;6.10;99.90;;;;;;5012139;28;20030;-52
2021/12/18 00:09:29;;;;;;;3.78;2.08;;;6.10;99.90;;;;;;5012418;28;20080;-51
2021/12/18 00:11:55;;;;;;;4.15;2.10;;;6.10;99.90;;;;;;5012093;28;20033;-53
2021/12/18 00:14:21;;;;;;;3.35;1.88;;;6.10;99.90;;;;;;5012153;28;20034;-53
2021/12/18 00:16:47;;;;;;;2.70;1.70;;;6.10;99.90;;;;;;5010925;28;20034;-51
2021/12/18 00:19:12;;;;;;;3.15;1.92;;;6.10;99.90;;;;;;5012044;28;20076;-51
2021/12/18 00:21:38;;;;;;;2.17;1.70;;;6.10;99.90;;;;;;5011701;28;20037;-52
2021/12/18 00:24:08;;;;;;;3.42;1.70;;;6.10;99.90;;;;;;5012185;28;20026;-50
2021/12/18 00:26:34;;;;;;;2.22;1.50;;;6.10;99.90;;;;;;4994284;28;20032;-50
2021/12/18 00:29:01;;;;;;;1.83;1.48;;;6.10;99.90;;;;;;5012222;28;20026;-55
2021/12/18 00:31:27;;;;;;;3.17;1.27;;;6.10;99.90;;;;;;5010910;28;20034;-52
2021/12/18 00:33:53;;;;;;;2.53;1.55;;;6.10;99.90;;;;;;5011884;28;20025;-50
2021/12/18 00:36:18;;;;;;;4.72;1.60;;;6.00;99.90;;;;;;5011901;28;20033;-48
2021/12/18 00:38:44;;;;;;;2.83;1.52;;;6.00;99.90;;;;;;5011739;28;20034;-48
2021/12/18 00:41:26;;;;;;;2.55;1.40;;;6.00;99.90;;;;;;5011920;28;20369;-51
2021/12/18 00:44:01;;;;;;;2.70;1.60;;;6.00;99.90;;;;;;5011534;28;20537;-49
2021/12/18 00:46:28;;;;;;;2.25;1.23;;;6.00;99.90;;;;;;5010916;28;20081;-51
2021/12/18 00:48:54;;;;;;;2.17;1.63;;;6.00;99.90;;;;;;5011187;28;20088;-49
2021/12/18 00:51:20;;;;;;;3.25;1.98;;;6.00;99.90;;;;;;5011828;28;20049;-51
2021/12/18 00:53:45;;;;;;;1.83;1.48;;;6.00;99.90;;;;;;5011809;28;20037;-47
2021/12/18 00:56:12;;;;;;;1.73;1.63;;;6.00;99.90;;;;;;4994377;28;20022;-49
2021/12/18 00:58:37;;;;;;;4.20;2.50;;;6.00;99.90;;;;;;5011487;28;20072;-50
2021/12/18 01:01:08;;;;;;;4.90;2.22;;;6.00;99.90;;;;;;5011580;28;20033;-51
2021/12/18 01:03:35;;;;;;;4.63;2.65;;;6.10;99.90;;;;;;5011132;28;20026;-50
2021/12/18 01:06:00;;;;;;;2.90;2.33;;;6.10;99.90;;;;;;5011556;28;20420;-50
2021/12/18 01:08:26;;;;;;;3.60;1.80;;;6.10;99.90;;;;;;5011532;28;20052;-51
2021/12/18 01:16:27;;;;;;;2.78;1.95;;;6.00;99.90;;;;;;4999248;28;20044;-51
2021/12/18 01:24:20;;;;;;;3.47;1.90;;;6.10;99.90;;;;;;5015151;28;20528;-48
2021/12/18 01:26:47;;;;;;;2.20;1.75;;;6.00;99.90;;;;;;5015048;28;20030;-51
2021/12/18 01:29:13;;;;;;;2.80;1.80;;;6.00;99.90;;;;;;5015324;28;20072;-49
2021/12/18 01:31:38;;;;;;;2.60;1.70;;;6.00;99.90;;;;;;5014106;28;20026;-49
2021/12/18 01:34:04;;;;;;;2.10;1.60;;;6.00;99.90;;;;;;5015043;28;20061;-49
2021/12/18 01:36:30;;;;;;;3.03;2.10;;;6.00;99.90;;;;;;5015009;28;20494;-51
2021/12/18 01:38:56;;;;;;;4.97;2.47;;;6.00;99.90;;;;;;5014799;28;20068;-46
2021/12/18 01:41:22;;;;;;;4.90;2.47;;;6.00;99.90;;;;;;5015021;28;20053;-51
2021/12/18 01:52:17;;;;;;;5.47;2.10;;;6.00;99.90;;;;;;5014786;28;20068;-49
2021/12/18 01:54:45;;;;;;;4.05;2.25;;;6.10;99.90;;;;;;5014803;28;20037;-49
2021/12/18 01:57:11;;;;;;;3.25;2.30;;;6.00;99.90;;;;;;4996873;28;20026;-48
2021/12/18 01:59:45;;;;;;;14.48;2.08;;;6.00;99.90;;;;;;5014656;28;20495;-50
2021/12/18 02:02:11;;;;;;;2.75;1.90;;;6.00;99.90;;;;;;5013375;28;20553;-51
2021/12/18 02:04:37;;;;;;;3.30;2.03;;;6.00;99.90;;;;;;5014631;28;20113;-49
2021/12/18 02:07:03;;;;;;;2.20;1.58;;;6.00;99.90;;;;;;4996999;28;20022;-49
2021/12/18 02:09:50;;;;;;;2.45;1.70;;;6.00;99.90;;;;;;5014669;28;20029;-51
2021/12/18 02:12:17;;;;;;;2.55;1.70;;;6.00;99.90;;;;;;5014031;28;20029;-49
2021/12/18 02:20:25;;;;;;;3.10;2.05;;;6.00;99.90;;;;;;5014265;28;20504;-51
2021/12/18 02:22:54;;;;;;;3.80;2.15;;;6.00;99.90;;;;;;5013973;28;20034;-53
2021/12/18 02:25:21;;;;;;;3.10;1.73;;;6.00;99.90;;;;;;5014245;28;20057;-48
2021/12/18 02:27:48;;;;;;;3.03;1.98;;;6.00;99.90;;;;;;5013389;28;20076;-46
2021/12/18 02:30:15;;;;;;;2.55;1.70;;;6.00;99.90;;;;;;5014274;28;20108;-53
2021/12/18 02:32:41;;;;;;;3.42;1.92;;;6.00;99.90;;;;;;5012970;28;20529;-51
2021/12/18 02:35:09;;;;;;;2.28;1.73;;;6.00;99.90;;;;;;5013817;28;20101;-47
2021/12/18 02:37:40;;;;;;;2.05;1.65;;;6.00;99.90;;;;;;5013967;28;20030;-48
2021/12/18 02:42:33;;;;;;;2.20;1.45;;;6.00;99.90;;;;;;5013829;28;20385;-47
2021/12/18 02:45:01;;;;;;;2.42;1.98;;;6.00;99.90;;;;;;5013626;28;20080;-49
2021/12/18 02:47:27;;;;;;;2.40;1.50;;;6.00;99.90;;;;;;5012509;28;20018;-48
2021/12/18 02:49:52;;;;;;;3.58;1.60;;;6.00;99.90;;;;;;5013543;28;20049;-46
2021/12/18 02:52:19;;;;;;;2.20;1.50;;;6.00;99.90;;;;;;4996064;28;20084;-50
2021/12/18 02:54:45;;;;;;;2.28;1.33;;;5.90;99.90;;;;;;5013627;28;20022;-50
2021/12/18 02:57:11;;;;;;;2.63;1.60;;;6.00;99.90;;;;;;5013458;28;20034;-50
2021/12/18 02:59:48;;;;;;;2.40;1.38;;;6.00;99.90;;;;;;5013592;28;20113;-51
2021/12/18 03:02:16;;;;;;;2.55;1.35;;;6.00;99.90;;;;;;5012195;28;20026;-50
2021/12/18 03:04:45;;;;;;;2.60;1.50;;;6.00;99.90;;;;;;5013205;28;20032;-52
2021/12/18 03:07:13;;;;;;;2.67;1.45;;;6.00;99.90;;;;;;5013485;28;20125;-52
2021/12/18 03:25:56;;;;;;;4.88;3.58;;;6.00;99.90;;;;;;5013968;28;20054;-49
2021/12/18 03:28:21;;;;;;;5.35;3.08;;;6.00;99.90;;;;;;5013942;28;20100;-51
2021/12/18 03:30:48;;;;;;;5.32;3.45;;;5.90;99.90;;;;;;4996612;28;20081;-50
2021/12/18 03:33:14;;;;;;;6.95;3.58;;;6.00;99.90;;;;;;5012666;28;20057;-49
2021/12/18 03:35:39;;;;;;;7.22;3.92;;;6.00;99.90;;;;;;5013703;28;20469;-49
2021/12/18 03:38:05;;;;;;;3.22;2.33;;;6.00;99.90;;;;;;5013674;28;20049;-46
2021/12/18 03:40:31;;;;;;;5.22;1.98;;;6.00;99.90;;;;;;5012871;28;20034;-49
2021/12/18 03:42:56;;;;;;;3.58;2.20;;;5.90;99.90;;;;;;5013481;28;20199;-50
2021/12/18 03:45:23;;;;;;;4.47;2.03;;;6.00;99.90;;;;;;5013727;28;20034;-49
2021/12/18 03:47:50;;;;;;;3.15;2.20;;;6.00;99.90;;;;;;5018431;28;20030;-50
2021/12/18 03:50:16;;;;;;;3.42;2.55;;;6.00;99.90;;;;;;5032910;28;20576;-50
2021/12/18 03:52:42;;;;;;;2.33;1.85;;;5.90;99.90;;;;;;5033381;28;20461;-47
2021/12/18 03:55:07;;;;;;;2.15;1.52;;;5.90;99.90;;;;;;5033088;28;20064;-50
2021/12/18 03:57:33;;;;;;;2.40;1.77;;;6.00;99.90;;;;;;5033371;28;20025;-48
2021/12/18 03:59:59;;;;;;;2.15;1.70;;;5.90;99.90;;;;;;5032905;28;20032;-49
2021/12/18 04:02:24;;;;;;;4.28;2.13;;;5.90;99.90;;;;;;5030237;28;20512;-48
2021/12/18 04:04:50;;;;;;;5.13;2.70;;;6.00;99.90;;;;;;5012889;28;20057;-50
2021/12/18 04:07:16;;;;;;;3.90;2.70;;;6.00;99.90;;;;;;5013283;28;20513;-47
2021/12/18 04:09:41;;;;;;;3.65;2.83;;;6.00;99.90;;;;;;5013215;28;20045;-50
2021/12/18 04:12:08;;;;;;;2.88;1.90;;;6.00;99.90;;;;;;5013136;28;20037;-48
2021/12/18 04:14:33;;;;;;;3.90;2.33;;;6.00;99.90;;;;;;5013349;28;20061;-50
2021/12/18 04:16:59;;;;;;;6.18;2.90;;;6.00;99.90;;;;;;5012178;28;20053;-50
2021/12/18 04:19:26;;;;;;;4.90;2.80;;;6.00;99.90;;;;;;4995107;28;20022;-51
2021/12/18 04:21:51;;;;;;;3.95;2.67;;;6.00;99.90;;;;;;5012961;28;20545;-51
2021/12/18 04:24:17;;;;;;;5.32;3.20;;;6.00;99.90;;;;;;5012804;28;20152;-49
2021/12/18 04:26:43;;;;;;;3.97;2.92;;;6.10;99.90;;;;;;5013069;28;20021;-47
2021/12/18 04:29:08;;;;;;;3.97;2.58;;;6.00;99.90;;;;;;5010330;28;20495;-47
2021/12/18 04:31:36;;;;;;;4.47;2.35;;;6.00;99.90;;;;;;5011968;28;20314;-51
2021/12/18 04:34:02;;;;;;;3.35;2.30;;;6.00;99.90;;;;;;5012526;28;20030;-49
2021/12/18 04:36:28;;;;;;;4.30;2.05;;;6.00;99.90;;;;;;5012775;28;20480;-48
2021/12/18 04:38:53;;;;;;;3.92;2.10;;;6.00;99.90;;;;;;5012738;28;20026;-49
2021/12/18 04:41:36;;;;;;;3.60;2.47;;;6.00;99.90;;;;;;4995193;28;20082;-49
2021/12/18 04:44:03;;;;;;;3.15;2.30;;;6.00;99.90;;;;;;5012315;28;20021;-54
2021/12/18 04:46:28;;;;;;;4.32;2.40;;;6.00;99.90;;;;;;5011562;28;20026;-50
2021/12/18 04:48:54;;;;;;;3.97;2.20;;;6.00;99.90;;;;;;5027236;28;20038;-48
2021/12/18 04:51:19;;;;;;;3.50;2.30;;;6.00;99.90;;;;;;5033851;28;20085;-48
2021/12/18 04:53:45;;;;;;;3.60;2.20;;;6.00;99.90;;;;;;5036496;28;20036;-50
2021/12/18 04:56:11;;;;;;;3.17;2.10;;;6.00;99.90;;;;;;5036480;28;20037;-49
2021/12/18 04:58:36;;;;;;;3.13;2.13;;;6.00;99.90;;;;;;5036335;28;20022;-49
2021/12/18 05:01:02;;;;;;;3.88;2.55;;;6.00;99.90;;;;;;5035810;28;20061;-51
2021/12/18 05:03:27;;;;;;;3.97;2.42;;;6.00;99.90;;;;;;5025396;28;20421;-49
2021/12/18 05:05:53;;;;;;;4.57;2.20;;;6.00;99.90;;;;;;5016483;28;20065;-52
2021/12/18 05:08:19;;;;;;;3.95;2.45;;;6.00;99.90;;;;;;5016562;28;20022;-49
2021/12/18 05:10:44;;;;;;;5.13;2.53;;;6.00;99.90;;;;;;5016456;28;20030;-49
2021/12/18 05:13:10;;;;;;;3.45;2.42;;;6.00;99.90;;;;;;5016428;28;20030;-49
2021/12/18 05:15:35;;;;;;;4.68;2.53;;;6.00;99.90;;;;;;5016380;28;20496;-48
2021/12/18 05:18:01;;;;;;;4.43;2.78;;;6.00;99.90;;;;;;5015288;28;20041;-52
2021/12/18 05:20:27;;;;;;;5.45;2.40;;;6.00;99.90;;;;;;5016093;28;20400;-49
2021/12/18 05:22:52;;;;;;;3.38;2.33;;;6.00;99.90;;;;;;5016360;28;20026;-54
2021/12/18 05:25:18;;;;;;;4.78;2.92;;;6.10;99.90;;;;;;5016088;28;20034;-52
2021/12/18 05:27:44;;;;;;;6.13;3.22;;;6.10;99.90;;;;;;5016342;28;20536;-48
2021/12/18 05:30:10;;;;;;;4.15;2.80;;;6.10;99.90;;;;;;5015990;28;20025;-48
2021/12/18 05:32:36;;;;;;;7.35;3.08;;;6.10;99.90;;;;;;5015098;28;20030;-47
2021/12/18 05:35:03;;;;;;;7.60;3.30;;;6.10;99.90;;;;;;5015973;28;20026;-52
2021/12/18 05:37:44;;;;;;;4.88;3.15;;;6.10;99.90;;;;;;5013483;28;20072;-48
2021/12/18 05:40:11;;;;;;;5.97;3.53;;;6.10;99.90;;;;;;5015771;28;20028;-51
2021/12/18 05:42:37;;;;;;;5.57;3.28;;;6.10;99.90;;;;;;5016044;28;20022;-50
2021/12/18 05:45:07;;;;;;;4.10;2.67;;;6.10;99.90;;;;;;5015513;28;20481;-52
2021/12/18 05:47:34;;;;;;;5.65;3.03;;;6.10;99.90;;;;;;5018557;28;20026;-50
2021/12/18 05:50:00;;;;;;;6.13;3.13;;;6.10;99.90;;;;;;5035307;28;20073;-49
2021/12/18 05:52:26;;;;;;;7.05;2.78;;;6.10;99.90;;;;;;5035319;28;20079;-53
2021/12/18 05:54:51;;;;;;;5.97;3.35;;;6.10;99.90;;;;;;5035444;28;20432;-49
2021/12/18 05:57:17;;;;;;;4.18;2.15;;;6.10;99.90;;;;;;5035321;28;20074;-51
2021/12/18 05:59:44;;;;;;;4.38;3.10;;;6.10;99.90;;;;;;5035234;28;20049;-52
2021/12/18 06:02:09;;;;;;;6.18;3.20;;;6.10;99.90;;;;;;5033624;28;20025;-48
2021/12/18 06:04:35;;;;;;;7.32;3.58;;;6.10;99.90;;;;;;5014926;28;20096;-51
2021/12/18 06:07:05;;;;;;;7.30;3.78;;;6.10;99.90;;;;;;5015278;28;20165;-48
2021/12/18 06:09:33;;;;;;;7.15;3.97;;;6.10;99.90;;;;;;5013153;28;23404;-52
2021/12/18 06:11:58;;;;;;;6.72;3.90;;;6.10;99.90;;;;;;5001096;28;20026;-50
2021/12/18 06:14:24;;;;;;;4.85;3.30;;;6.10;99.90;;;;;;5001483;28;20048;-54
2021/12/18 06:16:50;;;;;;;5.07;3.20;;;6.10;99.90;;;;;;5012791;28;20075;-50
2021/12/18 06:19:15;;;;;;;7.22;3.45;;;6.10;99.90;;;;;;5006290;28;20113;-50
2021/12/18 06:21:41;;;;;;;4.07;2.78;;;6.10;99.90;;;;;;5013415;28;20549;-55
2021/12/18 06:24:07;;;;;;;5.10;2.92;;;6.10;99.90;;;;;;4995580;28;20032;-51
2021/12/18 06:26:33;;;;;;;5.40;3.10;;;6.10;99.90;;;;;;5011063;28;20034;-53
2021/12/18 06:28:59;;;;;;;4.78;3.15;;;6.10;99.90;;;;;;5013551;28;20053;-51
2021/12/18 06:31:24;;;;;;;4.88;3.08;;;6.10;99.90;;;;;;5012174;28;20109;-49
2021/12/18 06:33:50;;;;;;;4.10;2.58;;;6.10;99.90;;;;;;5013314;28;20501;-53
2021/12/18 06:36:16;;;;;;;6.63;3.33;;;6.10;99.90;;;;;;5013032;28;20030;-49
2021/12/18 06:38:41;;;;;;;4.97;3.20;;;6.10;99.90;;;;;;4995571;28;20026;-47
2021/12/18 06:41:07;;;;;;;5.85;3.05;;;6.20;99.90;;;;;;5012919;28;20159;-50
2021/12/18 06:43:32;;;;;;;3.60;2.40;;;6.10;99.90;;;;;;5012807;28;20034;-51
2021/12/18 06:45:58;;;;;;;5.03;2.60;;;6.10;99.90;;;;;;5012694;28;20080;-53
2021/12/18 06:48:23;;;;;;;4.43;1.98;;;6.10;99.90;;;;;;5012309;28;20049;-53
2021/12/18 06:50:50;;;;;;;5.05;2.72;;;6.10;99.90;;;;;;5012818;28;20050;-49
2021/12/18 06:53:16;;;;;;;4.55;2.10;;;6.10;99.90;;;;;;5012670;28;20018;-50
2021/12/18 06:55:42;;;;;;;3.88;2.10;;;6.10;99.90;;;;;;5012838;28;20126;-52
2021/12/18 06:58:07;;;;;;;4.82;2.50;;;6.10;99.90;;;;;;5012493;28;20054;-51
2021/12/18 07:00:33;;;;;;;3.95;2.40;;;6.10;99.90;;;;;;5012555;28;20022;-48
2021/12/18 07:02:58;;;;;;;4.10;2.10;;;6.10;99.90;;;;;;5011773;28;20110;-49
2021/12/18 07:05:24;;;;;;;3.15;2.20;;;6.20;99.90;;;;;;5012387;28;20076;-53
2021/12/18 07:07:53;;;;;;;2.70;1.67;;;6.10;99.90;;;;;;5012485;28;20018;-52
2021/12/18 07:10:19;;;;;;;2.22;1.65;;;6.20;99.90;;;;;;5012408;28;20022;-51
2021/12/18 07:12:44;;;;;;;2.35;1.35;;;6.10;99.90;;;;;;5012413;28;20022;-48
2021/12/18 07:15:11;;;;;;;1.45;1.05;;;6.10;99.90;;;;;;5012143;28;20133;-55
2021/12/18 07:17:37;;;;;;;2.38;1.17;;;6.10;99.90;;;;;;4993799;28;20473;-48
2021/12/18 07:20:05;;;;;;;1.23;1.00;;;6.10;99.90;;;;;;4992307;28;20048;-51
2021/12/18 07:22:30;;;;;;;3.28;1.38;;;6.10;99.90;;;;;;5012151;28;20037;-49
2021/12/18 07:24:56;;;;;;;2.58;1.58;;;6.10;99.90;;;;;;5011870;28;20034;-49
2021/12/18 07:27:22;;;;;;;3.10;1.20;;;6.10;99.90;;;;;;5012046;28;20034;-48
2021/12/18 07:29:47;;;;;;;1.48;1.00;;;6.10;99.90;;;;;;5012061;28;20037;-51
2021/12/18 07:32:13;;;;;;;1.85;1.10;;;6.10;99.90;;;;;;5011276;28;20036;-49
2021/12/18 07:34:38;;;;;;;1.77;0.82;;;6.10;99.90;;;;;;5012191;28;20038;-48
2021/12/18 07:37:04;;;;;;;1.80;1.08;;;6.10;99.90;;;;;;5011828;28;20030;-53
2021/12/18 07:39:29;;;;;;;1.35;1.00;;;6.10;99.90;;;;;;5011956;28;20128;-49
2021/12/18 07:41:55;;;;;;;1.95;1.20;;;6.10;99.90;;;;;;5011707;28;20040;-49
2021/12/18 07:44:21;;;;;;;2.63;1.60;;;6.10;99.90;;;;;;5011810;28;20394;-53
2021/12/18 07:46:46;;;;;;;4.60;1.25;;;6.20;99.90;;;;;;5010763;28;20466;-49
2021/12/18 07:49:12;;;;;;;1.27;0.93;;;6.20;99.90;;;;;;5011721;28;20048;-51
2021/12/18 07:51:38;;;;;;;2.65;1.42;;;6.20;99.90;;;;;;5011547;28;20126;-48
2021/12/18 07:54:05;;;;;;;2.65;1.52;;;6.20;99.90;;;;;;5008424;28;20088;-51
2021/12/18 07:56:31;;;;;;;1.55;1.33;;;6.20;99.90;;;;;;5009149;28;20528;-54
2021/12/18 07:58:57;;;;;;;2.35;1.60;;;6.20;99.90;;;;;;5011682;28;20030;-49
2021/12/18 08:01:23;;;;;;;3.15;1.48;;;6.30;99.90;;;;;;5010524;28;20034;-48
2021/12/18 08:03:48;;;;;;;2.15;1.50;;;6.30;99.90;;;;;;5011494;28;20068;-51
2021/12/18 08:06:14;;;;;;;4.30;1.73;;;6.30;99.90;;;;;;5010943;28;20030;-50
2021/12/18 08:08:40;;;;;;;2.90;1.80;;;6.40;99.90;;;;;;5013128;28;20029;-49
2021/12/18 08:11:06;;;;;;;2.70;1.50;;;6.40;99.90;;;;;;5012596;28;20030;-49
2021/12/18 08:13:31;;;;;;;1.90;1.50;;;6.40;99.90;;;;;;5013093;28;20124;-48
2021/12/18 08:15:57;;;;;;;2.33;1.20;;;6.40;99.90;;;;;;5012632;28;20116;-53
2021/12/18 08:18:23;;;;;;;2.63;1.30;;;6.40;99.90;;;;;;5012584;28;20034;-51
2021/12/18 08:20:48;;;;;;;3.60;1.33;;;6.40;99.90;;;;;;5013002;28;20034;-52
2021/12/18 08:23:14;;;;;;;2.58;1.40;;;6.50;99.90;;;;;;5012992;28;20156;-49
2021/12/18 08:25:39;;;;;;;2.35;1.55;;;6.40;99.90;;;;;;5011940;28;20516;-50
2021/12/18 08:28:06;;;;;;;2.65;1.50;;;6.50;99.90;;;;;;5006762;28;20064;-51
2021/12/18 08:30:34;;;;;;;2.88;1.73;;;6.50;99.90;;;;;;5010467;28;20018;-50
2021/12/18 08:33:00;;;;;;;2.97;1.85;;;6.50;99.90;;;;;;5011735;28;20072;-53
2021/12/18 08:35:27;;;;;;;3.58;2.20;;;6.50;99.90;;;;;;5012304;28;20465;-49
2021/12/18 08:37:53;;;;;;;4.65;1.98;;;6.60;99.90;;;;;;4994893;28;20037;-51
2021/12/18 08:40:19;;;;;;;3.03;1.90;;;6.60;99.90;;;;;;5012181;28;20057;-52
2021/12/18 08:42:45;;;;;;;3.60;1.67;;;6.60;99.90;;;;;;5012249;28;20536;-50
2021/12/18 08:45:13;;;;;;;4.32;2.28;;;6.60;99.90;;;;;;4995052;28;20038;-46
2021/12/18 08:47:39;;;;;;;3.17;2.20;;;6.70;99.90;;;;;;5015650;28;20026;-49
2021/12/18 08:50:06;;;;;;;3.00;2.22;;;6.70;99.90;;;;;;5032124;28;20050;-47
2021/12/18 08:52:32;;;;;;;2.22;1.65;;;6.70;99.90;;;;;;5032011;28;20400;-49
2021/12/18 08:54:59;;;;;;;2.83;1.48;;;6.70;99.90;;;;;;5032082;28;20033;-47
2021/12/18 08:57:26;;;;;;;3.17;2.10;;;6.70;99.90;;;;;;5031974;28;20037;-49
2021/12/18 08:59:51;;;;;;;3.55;1.90;;;6.80;99.90;;;;;;5032079;28;20059;-53
2021/12/18 09:02:17;;;;;;;3.90;2.10;;;6.80;99.90;;;;;;5030331;28;20029;-48
2021/12/18 09:04:43;;;;;;;3.20;1.83;;;6.80;99.90;;;;;;5012463;28;20030;-50
2021/12/18 09:07:09;;;;;;;3.75;2.28;;;6.80;99.90;;;;;;5012435;28;20026;-48
2021/12/18 09:09:34;;;;;;;6.40;1.95;;;6.80;99.90;;;;;;5012218;28;20102;-48
2021/12/18 09:12:00;;;;;;;4.10;2.10;;;6.80;99.90;;;;;;5012335;28;20022;-53
2021/12/18 09:14:25;;;;;;;3.55;2.22;;;6.80;99.90;;;;;;5012219;28;20048;-48
2021/12/18 09:16:53;;;;;;;3.67;2.42;;;6.90;99.90;;;;;;5011202;28;20028;-48
2021/12/18 09:19:19;;;;;;;2.97;2.20;;;6.90;99.90;;;;;;5012592;28;20034;-49
2021/12/18 09:21:44;;;;;;;3.38;2.30;;;6.80;99.90;;;;;;5012233;28;20026;-47
2021/12/18 09:24:10;;;;;;;5.97;1.88;;;6.80;99.90;;;;;;5012274;28;20591;-48
2021/12/18 09:26:36;;;;;;;2.85;1.65;;;6.90;99.90;;;;;;5012161;28;20029;-48
2021/12/18 09:29:02;;;;;;;2.60;1.90;;;6.90;99.90;;;;;;5012524;28;20548;-50
2021/12/18 09:31:27;;;;;;;2.90;1.95;;;6.90;99.90;;;;;;5011297;28;20053;-48
2021/12/18 09:33:53;;;;;;;2.85;1.77;;;6.90;99.90;;;;;;5012348;28;20096;-52
2021/12/18 09:36:18;;;;;;;3.63;2.28;;;6.90;99.90;;;;;;5007580;28;20061;-50
2021/12/18 09:38:44;;;;;;;2.47;1.70;;;6.90;99.90;;;;;;5015767;28;20098;-50
2021/12/18 09:41:10;;;;;;;2.90;1.48;;;6.90;99.90;;;;;;5015762;28;20488;-50
2021/12/18 09:43:36;;;;;;;2.55;1.55;;;6.90;99.90;;;;;;5015872;28;20088;-48
2021/12/18 09:46:04;;;;;;;1.77;1.30;;;6.90;99.90;;;;;;5014815;28;20377;-50
2021/12/18 09:48:30;;;;;;;2.15;1.50;;;6.90;99.90;;;;;;5027304;28;20095;-48
2021/12/18 09:50:57;;;;;;;1.67;1.35;;;7.00;99.90;;;;;;5017238;28;20053;-48
2021/12/18 09:53:23;;;;;;;3.20;2.35;;;7.00;99.90;;;;;;5015497;28;20026;-50
2021/12/18 09:55:49;;;;;;;2.13;1.58;;;7.00;99.90;;;;;;5015309;28;20068;-49
2021/12/18 09:58:14;;;;;;;2.67;1.42;;;7.00;99.90;;;;;;5015336;28;20076;-49
2021/12/18 10:00:40;;;;;;;3.05;1.52;;;7.00;99.90;;;;;;5015289;28;20052;-51
2021/12/18 10:03:07;;;;;;;4.00;1.77;;;7.10;99.90;;;;;;5014377;28;20389;-48
2021/12/18 10:05:34;;;;;;;5.85;1.55;;;7.10;99.90;;;;;;5015209;28;20061;-49
2021/12/18 10:08:15;;;;;;;3.42;1.23;;;7.10;99.90;;;;;;5015170;28;20441;-50
2021/12/18 10:11:01;;;;;;;1.95;1.40;;;7.10;99.90;;;;;;5015215;28;20037;-50
2021/12/18 10:13:27;;;;;;;4.30;1.70;;;7.10;99.90;;;;;;5014951;28;20022;-51
2021/12/18 10:16:11;;;;;;;2.13;1.58;;;7.10;99.90;;;;;;5014750;28;20056;-48
2021/12/18 10:18:37;;;;;;;3.05;1.73;;;7.10;99.90;;;;;;5014367;28;20037;-50
2021/12/18 10:21:16;;;;;;;1.50;1.13;;;7.10;99.90;;;;;;5014972;28;20021;-47
2021/12/18 10:23:43;;;;;;;2.08;1.25;;;7.10;99.90;;;;;;4997318;28;20054;-51
2021/12/18 10:26:29;;;;;;;2.35;1.25;;;7.10;99.90;;;;;;5014819;28;20406;-51
2021/12/18 10:28:54;;;;;;;1.67;1.10;;;7.20;99.90;;;;;;5014654;28;20062;-53
2021/12/18 10:31:38;;;;;;;7.90;1.40;;;7.20;99.90;;;;;;5013874;28;20073;-48
2021/12/18 10:34:33;;;;;;;1.23;0.95;;;7.20;99.90;;;;;;5014927;28;20644;-51
2021/12/18 10:37:25;;;;;;;1.48;1.00;;;7.20;99.90;;;;;;4993662;28;20033;-52
2021/12/18 10:39:51;;;;;;;1.38;1.00;;;7.20;99.90;;;;;;5014617;28;20032;-48
2021/12/18 10:42:29;;;;;;;3.05;1.05;;;7.20;99.90;;;;;;5014613;28;20470;-51
2021/12/18 10:45:15;;;;;;;2.72;1.30;;;7.30;99.90;;;;;;5014484;28;20096;-50
2021/12/18 10:48:03;;;;;;;2.22;1.20;;;7.20;99.90;;;;;;5013265;28;20061;-50
2021/12/18 10:50:51;;;;;;;2.30;0.95;;;7.20;99.90;;;;;;5014001;28;20042;-49
2021/12/18 10:53:31;;;;;;;3.15;1.30;;;7.30;99.90;;;;;;5014528;28;20393;-49
2021/12/18 10:56:02;;;;;;;1.42;1.05;;;7.30;99.90;;;;;;5014686;28;20289;-51
2021/12/18 10:58:31;;;;;;;1.85;1.02;;;7.30;99.90;;;;;;5014325;28;20112;-49
2021/12/18 11:01:10;;;;;;;2.20;1.50;;;7.30;99.90;;;;;;4995819;28;20076;-50
2021/12/18 11:03:44;;;;;;;2.88;1.48;;;7.30;99.90;;;;;;5014315;28;20117;-50
2021/12/18 11:06:12;;;;;;;2.50;1.50;;;7.30;99.90;;;;;;5014294;28;20029;-51
2021/12/18 11:09:09;;;;;;;1.95;1.33;;;7.30;99.90;;;;;;5014299;28;20033;-49
2021/12/18 11:14:21;;;;;;;1.92;1.42;;;7.30;99.90;;;;;;5009621;28;20030;-49
2021/12/18 11:16:50;;;;;;;1.63;1.23;;;7.30;99.90;;;;;;4999858;28;20531;-51
2021/12/18 11:19:21;;;;;;;3.97;1.67;;;7.30;99.90;;;;;;5012428;28;20030;-48
2021/12/18 11:21:56;;;;;;;2.45;1.45;;;7.30;99.90;;;;;;5012078;28;20053;-51
2021/12/18 11:24:31;;;;;;;2.85;1.70;;;7.30;99.90;;;;;;5003947;28;20133;-53
2021/12/18 11:27:00;;;;;;;3.33;2.00;;;7.30;99.90;;;;;;5012159;28;20415;-50
2021/12/18 11:29:45;;;;;;;4.18;2.03;;;7.30;99.90;;;;;;5012030;28;20416;-52
2021/12/18 11:32:16;;;;;;;2.35;1.77;;;7.30;99.90;;;;;;5008086;28;20026;-54
2021/12/18 11:34:46;;;;;;;3.08;2.08;;;7.30;99.90;;;;;;5011942;28;20037;-52
2021/12/18 11:37:13;;;;;;;4.28;2.10;;;7.30;99.90;;;;;;5012099;28;20504;-50
2021/12/18 11:39:43;;;;;;;2.28;1.73;;;7.40;99.90;;;;;;5011853;28;20417;-52
2021/12/18 11:42:09;;;;;;;3.67;1.42;;;7.40;99.90;;;;;;5011017;28;20022;-55
2021/12/18 11:44:37;;;;;;;3.53;1.90;;;7.40;99.90;;;;;;5010158;28;20052;-52
2021/12/18 11:47:28;;;;;;;2.85;1.73;;;7.40;99.90;;;;;;5010362;28;20029;-52
2021/12/18 11:49:56;;;;;;;5.10;2.50;;;7.50;99.90;;;;;;5002007;28;20125;-52
2021/12/18 11:52:22;;;;;;;3.33;1.92;;;7.50;99.90;;;;;;5011523;28;20109;-50
2021/12/18 11:54:50;;;;;;;3.70;1.60;;;7.50;99.90;;;;;;5011352;28;20101;-52
2021/12/18 11:57:48;;;;;;;4.28;2.13;;;7.60;99.90;;;;;;5011608;28;20030;-53
2021/12/18 12:00:21;;;;;;;4.53;2.67;;;7.60;99.90;;;;;;5010794;28;20030;-50
2021/12/18 12:02:55;;;;;;;6.60;1.88;;;7.60;99.90;;;;;;5009857;28;20116;-54
2021/12/18 12:05:31;;;;;;;5.65;2.28;;;7.60;99.90;;;;;;5006204;28;20381;-49
2021/12/18 12:08:17;;;;;;;;;;;7.60;99.90;;;;;;5011712;28;20469;-52
2021/12/18 12:11:16;;;;;;;3.10;1.52;;;7.60;99.90;;;;;;5011473;28;19906;-53
2021/12/18 12:14:00;;;;;;;8.35;2.08;;;7.60;99.90;;;;;;5011115;28;20540;-51
2021/12/18 12:16:46;;;;;;;8.95;2.05;;;7.60;99.90;;;;;;5005520;28;20026;-53
2021/12/18 12:19:13;;;;;;;;;;;7.60;99.90;;;;;;5011435;28;20381;-54
2021/12/18 12:21:45;;;;;;;3.08;1.52;;;7.60;99.90;;;;;;5011219;28;19905;-55
2021/12/18 12:24:17;;;;;;;4.28;2.20;;;7.50;99.90;;;;;;5010947;28;20412;-51
2021/12/18 12:26:43;;;;;;;3.40;1.80;;;7.60;99.90;;;;;;5011012;28;20029;-54
2021/12/18 12:29:13;;;;;;;1.75;1.30;;;7.50;99.90;;;;;;5010953;28;20113;-54
2021/12/18 12:32:05;;;;;;;4.35;1.50;;;7.60;99.90;;;;;;5009646;28;20113;-55
2021/12/18 12:34:36;;;;;;;5.05;1.33;;;7.50;99.90;;;;;;5010809;28;20044;-54
2021/12/18 12:37:23;;;;;;;2.92;1.30;;;7.50;99.90;;;;;;5011050;28;20048;-55
2021/12/18 12:40:06;;;;;;;2.05;1.33;;;7.50;99.90;;;;;;5011066;28;20386;-53
2021/12/18 12:42:32;;;;;;;2.72;1.30;;;7.40;99.90;;;;;;5010852;28;20026;-52
2021/12/18 12:45:14;;;;;;;3.28;1.40;;;7.40;99.90;;;;;;5010822;28;20121;-53
2021/12/18 12:47:40;;;;;;;3.65;1.58;;;7.40;99.90;;;;;;5009710;28;20018;-52
2021/12/18 12:50:12;;;;;;;8.95;1.70;;;7.50;99.90;;;;;;5005206;28;20557;-55
2021/12/18 12:52:57;;;;;;;2.53;1.63;;;7.50;99.90;;;;;;5010711;28;20469;-51
2021/12/18 12:55:31;;;;;;;3.72;1.10;;;7.40;99.90;;;;;;5011126;28;20103;-50
2021/12/18 12:58:00;;;;;;;4.30;1.20;;;7.50;99.90;;;;;;5010779;28;20030;-52
2021/12/18 13:00:29;;;;;;;3.97;1.35;;;7.50;99.90;;;;;;5011002;28;20105;-53
2021/12/18 13:03:00;;;;;;;1.95;0.80;;;7.50;99.90;;;;;;5009445;28;20560;-52
2021/12/18 13:05:28;;;;;;;34.78;4.15;;;7.50;99.90;;;;;;5010818;28;20033;-48
2021/12/18 13:08:01;;;;;;;2.20;1.17;;;7.50;99.90;;;;;;5010557;28;20026;-55
2021/12/18 13:10:29;;;;;;;2.45;1.60;;;7.50;99.90;;;;;;5010803;28;20034;-49
2021/12/18 13:13:05;;;;;;;3.40;1.50;;;7.50;99.90;;;;;;5013025;28;20177;-52
2021/12/18 13:15:55;;;;;;;1.88;1.20;;;7.50;99.90;;;;;;5014505;28;20026;-54
2021/12/18 13:18:24;;;;;;;3.53;1.50;;;7.50;99.90;;;;;;5014492;28;20033;-51
2021/12/18 13:21:01;;;;;;;2.58;1.85;;;7.50;99.90;;;;;;5014485;28;20036;-50
2021/12/18 13:23:38;;;;;;;2.97;1.80;;;7.50;99.90;;;;;;5014662;28;20037;-53
2021/12/18 13:26:09;;;;;;;3.72;1.55;;;7.50;99.90;;;;;;5014457;28;20033;-50
2021/12/18 13:28:44;;;;;;;8.70;1.77;;;7.60;99.90;;;;;;5014465;28;20018;-53
2021/12/18 13:31:10;;;;;;;1.65;0.85;;;7.60;99.90;;;;;;5012663;28;20504;-53
2021/12/18 13:33:36;;;;;;;1.45;0.80;;;7.60;99.90;;;;;;5014410;28;20358;-48
2021/12/18 13:36:03;;;;;;;1.63;0.90;;;7.60;99.90;;;;;;5014527;28;20048;-52
2021/12/18 13:38:44;;;;;;;2.75;0.80;;;7.60;99.90;;;;;;5015818;28;20417;-52
2021/12/18 13:41:13;;;;;;;3.70;0.80;;;7.70;99.90;;;;;;5015918;28;20870;-53
2021/12/18 13:43:40;;;;;;;2.80;1.05;;;7.60;99.90;;;;;;5011923;28;20046;-54
2021/12/18 13:46:12;;;;;;;6.32;1.10;;;7.70;99.90;;;;;;5014076;28;20540;-53
2021/12/18 13:48:43;;;;;;;5.88;1.17;;;7.70;99.90;;;;;;5015558;28;20029;-53
2021/12/18 13:51:17;;;;;;;2.40;1.10;;;7.70;99.90;;;;;;5015112;28;20038;-51
2021/12/18 13:53:58;;;;;;;2.17;1.27;;;7.70;99.90;;;;;;5015524;28;20029;-51